createdAt,value
2017-02-11T00:00:19.983Z,1026.86
2017-02-11T00:01:20.650Z,1026.81
2017-02-11T00:02:21.328Z,1026.81
2017-02-11T00:03:21.996Z,1026.79
2017-02-11T00:04:22.672Z,1026.83
2017-02-11T00:05:23.380Z,1026.81
2017-02-11T00:06:24.074Z,1026.81
2017-02-11T00:07:24.742Z,1026.87
2017-02-11T00:08:25.413Z,1026.87
2017-02-11T00:09:26.075Z,1026.89
2017-02-11T00:10:26.745Z,1026.83
2017-02-11T00:11:27.414Z,1026.85
2017-02-11T00:12:28.094Z,1026.83
2017-02-11T00:13:28.783Z,1026.84
2017-02-11T00:14:29.526Z,1026.87
2017-02-11T00:15:30.212Z,1026.85
2017-02-11T00:16:30.897Z,1026.84
2017-02-11T00:17:31.609Z,1026.81
2017-02-11T00:18:32.274Z,1026.77
2017-02-11T00:19:32.959Z,1026.8
2017-02-11T00:20:33.640Z,1026.73
2017-02-11T00:21:34.352Z,1026.74
2017-02-11T00:22:35.032Z,1026.66
2017-02-11T00:23:35.689Z,1026.63
2017-02-11T00:24:36.374Z,1026.66
2017-02-11T00:25:37.050Z,1026.65
2017-02-11T00:26:37.741Z,1026.66
2017-02-11T00:27:38.417Z,1026.66
2017-02-11T00:28:39.122Z,1026.61
2017-02-11T00:29:39.789Z,1026.63
2017-02-11T00:30:40.461Z,1026.64
2017-02-11T00:31:41.123Z,1026.64
2017-02-11T00:32:41.798Z,1026.66
2017-02-11T00:33:42.503Z,1026.65
2017-02-11T00:34:43.193Z,1026.59
2017-02-11T00:35:43.877Z,1026.65
2017-02-11T00:36:44.612Z,1026.65
2017-02-11T00:37:45.308Z,1026.61
2017-02-11T00:38:45.988Z,1026.61
2017-02-11T00:39:46.714Z,1026.6
2017-02-11T00:40:47.382Z,1026.63
2017-02-11T00:41:48.080Z,1026.62
2017-02-11T00:42:48.767Z,1026.61
2017-02-11T00:43:49.450Z,1026.56
2017-02-11T00:44:50.233Z,1026.59
2017-02-11T00:45:50.918Z,1026.57
2017-02-11T00:46:51.601Z,1026.61
2017-02-11T00:47:52.294Z,1026.55
2017-02-11T00:48:52.972Z,1026.58
2017-02-11T00:49:53.651Z,1026.52
2017-02-11T00:50:54.318Z,1026.54
2017-02-11T00:51:54.982Z,1026.56
2017-02-11T00:52:55.665Z,1026.57
2017-02-11T00:53:56.467Z,1026.57
2017-02-11T00:54:57.157Z,1026.54
2017-02-11T00:55:57.818Z,1026.56
2017-02-11T00:56:58.493Z,1026.51
2017-02-11T00:57:59.206Z,1026.55
2017-02-11T00:58:59.896Z,1026.61
2017-02-11T01:00:00.569Z,1026.59
2017-02-11T01:01:01.240Z,1026.59
2017-02-11T01:02:01.952Z,1026.61
2017-02-11T01:03:02.634Z,1026.67
2017-02-11T01:04:03.345Z,1026.67
2017-02-11T01:05:04.016Z,1026.65
2017-02-11T01:06:04.743Z,1026.64
2017-02-11T01:07:05.407Z,1026.65
2017-02-11T01:08:06.091Z,1026.64
2017-02-11T01:09:06.774Z,1026.67
2017-02-11T01:10:07.441Z,1026.63
2017-02-11T01:11:08.122Z,1026.62
2017-02-11T01:12:08.804Z,1026.6
2017-02-11T01:13:09.502Z,1026.64
2017-02-11T01:14:10.172Z,1026.59
2017-02-11T01:15:10.860Z,1026.57
2017-02-11T01:16:11.553Z,1026.62
2017-02-11T01:17:12.253Z,1026.55
2017-02-11T01:18:12.915Z,1026.55
2017-02-11T01:19:13.603Z,1026.51
2017-02-11T01:20:14.308Z,1026.5
2017-02-11T01:21:14.987Z,1026.53
2017-02-11T01:22:15.654Z,1026.5
2017-02-11T01:23:16.330Z,1026.47
2017-02-11T01:24:16.992Z,1026.51
2017-02-11T01:25:17.676Z,1026.48
2017-02-11T01:26:18.373Z,1026.51
2017-02-11T01:27:19.062Z,1026.42
2017-02-11T01:28:19.736Z,1026.45
2017-02-11T01:29:20.402Z,1026.46
2017-02-11T01:30:21.095Z,1026.55
2017-02-11T01:31:21.761Z,1026.52
2017-02-11T01:32:22.430Z,1026.56
2017-02-11T01:33:23.118Z,1026.51
2017-02-11T01:34:23.792Z,1026.5
2017-02-11T01:35:24.471Z,1026.51
2017-02-11T01:36:25.133Z,1026.49
2017-02-11T01:37:25.823Z,1026.5
2017-02-11T01:38:26.510Z,1026.51
2017-02-11T01:39:27.201Z,1026.48
2017-02-11T01:40:27.881Z,1026.51
2017-02-11T01:41:28.547Z,1026.53
2017-02-11T01:42:29.240Z,1026.5
2017-02-11T01:43:29.916Z,1026.55
2017-02-11T01:44:30.573Z,1026.58
2017-02-11T01:45:31.257Z,1026.55
2017-02-11T01:46:31.935Z,1026.52
2017-02-11T01:47:32.615Z,1026.47
2017-02-11T01:48:33.301Z,1026.48
2017-02-11T01:49:33.975Z,1026.48
2017-02-11T01:50:34.651Z,1026.45
2017-02-11T01:51:35.325Z,1026.46
2017-02-11T01:52:36.021Z,1026.44
2017-02-11T01:53:36.684Z,1026.49
2017-02-11T01:54:37.384Z,1026.41
2017-02-11T01:55:38.065Z,1026.43
2017-02-11T01:56:38.738Z,1026.38
2017-02-11T01:57:39.401Z,1026.37
2017-02-11T01:58:40.089Z,1026.25
2017-02-11T01:59:40.768Z,1026.27
2017-02-11T02:00:41.451Z,1026.33
2017-02-11T02:01:42.137Z,1026.3
2017-02-11T02:02:42.821Z,1026.31
2017-02-11T02:03:43.498Z,1026.32
2017-02-11T02:04:44.192Z,1026.27
2017-02-11T02:05:44.873Z,1026.3
2017-02-11T02:06:45.561Z,1026.3
2017-02-11T02:07:46.247Z,1026.27
2017-02-11T02:08:46.921Z,1026.31
2017-02-11T02:09:47.628Z,1026.31
2017-02-11T02:10:48.331Z,1026.3
2017-02-11T02:11:48.990Z,1026.34
2017-02-11T02:12:49.702Z,1026.32
2017-02-11T02:13:50.401Z,1026.3
2017-02-11T02:14:51.082Z,1026.31
2017-02-11T02:15:51.769Z,1026.3
2017-02-11T02:16:52.449Z,1026.24
2017-02-11T02:17:53.112Z,1026.22
2017-02-11T02:18:53.822Z,1026.24
2017-02-11T02:19:54.561Z,1026.28
2017-02-11T02:20:55.246Z,1026.28
2017-02-11T02:21:55.920Z,1026.29
2017-02-11T02:22:56.604Z,1026.26
2017-02-11T02:23:57.285Z,1026.21
2017-02-11T02:24:57.958Z,1026.22
2017-02-11T02:25:58.625Z,1026.19
2017-02-11T02:26:59.309Z,1026.16
2017-02-11T02:27:59.978Z,1026.16
2017-02-11T02:29:00.680Z,1026.18
2017-02-11T02:30:01.354Z,1026.16
2017-02-11T02:31:02.021Z,1026.15
2017-02-11T02:32:02.693Z,1026.16
2017-02-11T02:33:03.363Z,1026.15
2017-02-11T02:34:04.040Z,1026.11
2017-02-11T02:35:04.725Z,1026.09
2017-02-11T02:36:05.419Z,1026.14
2017-02-11T02:37:06.100Z,1026.11
2017-02-11T02:38:06.775Z,1026.03
2017-02-11T02:39:07.451Z,1026.06
2017-02-11T02:40:08.122Z,1026.09
2017-02-11T02:41:08.804Z,1026.07
2017-02-11T02:42:09.491Z,1026.07
2017-02-11T02:43:10.177Z,1026.06
2017-02-11T02:44:10.879Z,1026.08
2017-02-11T02:45:11.563Z,1026.09
2017-02-11T02:46:12.259Z,1026.06
2017-02-11T02:47:12.948Z,1026.09
2017-02-11T02:48:13.633Z,1026.01
2017-02-11T02:49:14.312Z,1026.03
2017-02-11T02:50:14.977Z,1026.1
2017-02-11T02:51:15.642Z,1026.08
2017-02-11T02:52:16.339Z,1026.05
2017-02-11T02:53:17.017Z,1026.04
2017-02-11T02:54:17.709Z,1026.06
2017-02-11T02:55:18.382Z,1026.08
2017-02-11T02:56:19.059Z,1026.07
2017-02-11T02:57:19.728Z,1026.09
2017-02-11T02:58:20.405Z,1026.12
2017-02-11T02:59:21.081Z,1026.09
2017-02-11T03:00:21.756Z,1026.08
2017-02-11T03:01:22.476Z,1026.05
2017-02-11T03:02:23.130Z,1026.04
2017-02-11T03:03:23.806Z,1026.09
2017-02-11T03:04:24.504Z,1026.07
2017-02-11T03:05:25.166Z,1026.02
2017-02-11T03:06:25.843Z,1026
2017-02-11T03:07:26.509Z,1026
2017-02-11T03:08:27.179Z,1025.94
2017-02-11T03:09:27.856Z,1026.01
2017-02-11T03:10:28.514Z,1025.99
2017-02-11T03:11:29.193Z,1025.98
2017-02-11T03:12:29.874Z,1025.91
2017-02-11T03:13:30.537Z,1025.91
2017-02-11T03:14:31.209Z,1025.94
2017-02-11T03:15:31.907Z,1025.99
2017-02-11T03:16:32.615Z,1026.01
2017-02-11T03:17:33.301Z,1026.07
2017-02-11T03:18:33.957Z,1026.04
2017-02-11T03:19:34.615Z,1026.12
2017-02-11T03:20:35.297Z,1026.09
2017-02-11T03:21:35.962Z,1026.11
2017-02-11T03:22:36.639Z,1026.14
2017-02-11T03:23:37.345Z,1026.15
2017-02-11T03:24:38.011Z,1026.09
2017-02-11T03:25:38.688Z,1026.08
2017-02-11T03:26:39.374Z,1026.15
2017-02-11T03:27:40.052Z,1026.12
2017-02-11T03:28:40.712Z,1026.15
2017-02-11T03:29:41.367Z,1026.23
2017-02-11T03:30:42.056Z,1026.1
2017-02-11T03:31:42.784Z,1026.16
2017-02-11T03:32:43.469Z,1026.17
2017-02-11T03:33:44.137Z,1026.22
2017-02-11T03:34:44.823Z,1026.17
2017-02-11T03:35:45.502Z,1026.17
2017-02-11T03:36:46.184Z,1026.26
2017-02-11T03:37:46.847Z,1026.18
2017-02-11T03:38:47.529Z,1026.16
2017-02-11T03:39:48.186Z,1026.24
2017-02-11T03:40:48.861Z,1026.22
2017-02-11T03:41:49.552Z,1026.23
2017-02-11T03:42:50.230Z,1026.19
2017-02-11T03:43:50.948Z,1026.2
2017-02-11T03:44:51.615Z,1026.15
2017-02-11T03:45:52.301Z,1026.18
2017-02-11T03:46:52.958Z,1026.18
2017-02-11T03:47:53.633Z,1026.17
2017-02-11T03:48:54.303Z,1026.11
2017-02-11T03:49:55.008Z,1026.13
2017-02-11T03:50:55.670Z,1026.17
2017-02-11T03:51:56.366Z,1026.1
2017-02-11T03:52:57.048Z,1026.14
2017-02-11T03:53:57.736Z,1026.12
2017-02-11T03:54:58.417Z,1026.15
2017-02-11T03:55:59.190Z,1026.16
2017-02-11T03:56:59.895Z,1026.17
2017-02-11T03:58:00.565Z,1026.16
2017-02-11T03:59:01.241Z,1026.19
2017-02-11T04:00:01.915Z,1026.29
2017-02-11T04:01:02.575Z,1026.26
2017-02-11T04:02:03.245Z,1026.26
2017-02-11T04:03:03.952Z,1026.27
2017-02-11T04:04:04.670Z,1026.28
2017-02-11T04:05:05.311Z,1026.33
2017-02-11T04:06:06.018Z,1026.34
2017-02-11T04:07:06.717Z,1026.37
2017-02-11T04:08:07.431Z,1026.35
2017-02-11T04:09:08.092Z,1026.27
2017-02-11T04:10:08.781Z,1026.33
2017-02-11T04:11:09.489Z,1026.3
2017-02-11T04:12:10.175Z,1026.32
2017-02-11T04:13:10.839Z,1026.3
2017-02-11T04:14:11.540Z,1026.36
2017-02-11T04:15:12.228Z,1026.35
2017-02-11T04:16:12.904Z,1026.41
2017-02-11T04:17:13.579Z,1026.34
2017-02-11T04:18:14.265Z,1026.38
2017-02-11T04:19:14.922Z,1026.34
2017-02-11T04:20:15.604Z,1026.35
2017-02-11T04:21:16.268Z,1026.35
2017-02-11T04:22:16.940Z,1026.31
2017-02-11T04:23:17.653Z,1026.27
2017-02-11T04:24:18.308Z,1026.28
2017-02-11T04:25:18.967Z,1026.25
2017-02-11T04:26:19.677Z,1026.22
2017-02-11T04:27:20.355Z,1026.26
2017-02-11T04:28:21.042Z,1026.3
2017-02-11T04:29:21.716Z,1026.23
2017-02-11T04:30:22.385Z,1026.21
2017-02-11T04:31:23.054Z,1026.29
2017-02-11T04:32:23.735Z,1026.23
2017-02-11T04:33:24.425Z,1026.24
2017-02-11T04:34:25.211Z,1026.25
2017-02-11T04:35:25.926Z,1026.29
2017-02-11T04:36:26.602Z,1026.32
2017-02-11T04:37:27.301Z,1026.26
2017-02-11T04:38:28.005Z,1026.35
2017-02-11T04:39:28.696Z,1026.26
2017-02-11T04:40:29.391Z,1026.28
2017-02-11T04:41:30.069Z,1026.26
2017-02-11T04:42:30.757Z,1026.21
2017-02-11T04:43:31.435Z,1026.21
2017-02-11T04:44:32.121Z,1026.2
2017-02-11T04:45:32.813Z,1026.22
2017-02-11T04:46:33.479Z,1026.21
2017-02-11T04:47:34.171Z,1026.2
2017-02-11T04:48:34.828Z,1026.21
2017-02-11T04:49:35.497Z,1026.24
2017-02-11T04:50:36.166Z,1026.19
2017-02-11T04:51:36.853Z,1026.18
2017-02-11T04:52:37.516Z,1026.27
2017-02-11T04:53:38.177Z,1026.19
2017-02-11T04:54:38.865Z,1026.19
2017-02-11T04:55:39.547Z,1026.26
2017-02-11T04:56:40.240Z,1026.18
2017-02-11T04:57:40.922Z,1026.19
2017-02-11T04:58:41.599Z,1026.18
2017-02-11T04:59:42.248Z,1026.22
2017-02-11T05:00:42.923Z,1026.2
2017-02-11T05:01:43.617Z,1026.18
2017-02-11T05:02:44.280Z,1026.31
2017-02-11T05:03:45.039Z,1026.19
2017-02-11T05:04:45.713Z,1026.23
2017-02-11T05:05:46.410Z,1026.23
2017-02-11T05:06:47.106Z,1026.27
2017-02-11T05:07:47.813Z,1026.21
2017-02-11T05:08:48.505Z,1026.21
2017-02-11T05:09:49.167Z,1026.25
2017-02-11T05:10:49.861Z,1026.26
2017-02-11T05:11:50.562Z,1026.26
2017-02-11T05:12:51.209Z,1026.3
2017-02-11T05:13:51.886Z,1026.26
2017-02-11T05:14:52.564Z,1026.24
2017-02-11T05:15:53.236Z,1026.28
2017-02-11T05:16:53.904Z,1026.24
2017-02-11T05:17:54.570Z,1026.28
2017-02-11T05:18:55.263Z,1026.3
2017-02-11T05:19:55.912Z,1026.32
2017-02-11T05:20:56.591Z,1026.25
2017-02-11T05:21:57.268Z,1026.26
2017-02-11T05:22:57.937Z,1026.26
2017-02-11T05:23:58.605Z,1026.31
2017-02-11T05:24:59.293Z,1026.31
2017-02-11T05:25:59.970Z,1026.28
2017-02-11T05:27:00.644Z,1026.19
2017-02-11T05:28:01.329Z,1026.26
2017-02-11T05:29:02.004Z,1026.24
2017-02-11T05:30:02.682Z,1026.25
2017-02-11T05:31:03.410Z,1026.21
2017-02-11T05:32:04.119Z,1026.16
2017-02-11T05:33:04.829Z,1026.15
2017-02-11T05:34:05.528Z,1026.24
2017-02-11T05:35:06.231Z,1026.17
2017-02-11T05:36:06.892Z,1026.18
2017-02-11T05:37:07.555Z,1026.14
2017-02-11T05:38:08.239Z,1026.11
2017-02-11T05:39:08.968Z,1026.14
2017-02-11T05:40:09.667Z,1026.11
2017-02-11T05:41:10.339Z,1026.1
2017-02-11T05:42:11.018Z,1026.02
2017-02-11T05:43:11.816Z,1026.09
2017-02-11T05:44:12.537Z,1026.04
2017-02-11T05:45:13.199Z,1026.02
2017-02-11T05:46:13.900Z,1026.08
2017-02-11T05:47:14.580Z,1026.07
2017-02-11T05:48:15.227Z,1026.06
2017-02-11T05:49:15.879Z,1026.06
2017-02-11T05:50:16.568Z,1026.07
2017-02-11T05:51:17.243Z,1026.06
2017-02-11T05:52:17.962Z,1026.08
2017-02-11T05:53:18.667Z,1026.14
2017-02-11T05:54:19.345Z,1026.09
2017-02-11T05:55:20.015Z,1026.13
2017-02-11T05:56:20.717Z,1026.1
2017-02-11T05:57:21.379Z,1026.05
2017-02-11T05:58:22.054Z,1026.06
2017-02-11T05:59:22.746Z,1026.08
2017-02-11T06:00:23.420Z,1026.03
2017-02-11T06:01:24.081Z,1026.12
2017-02-11T06:02:24.795Z,1026.16
2017-02-11T06:03:25.505Z,1026.17
2017-02-11T06:04:26.164Z,1026.17
2017-02-11T06:05:26.829Z,1026.2
2017-02-11T06:06:27.590Z,1026.21
2017-02-11T06:07:28.306Z,1026.22
2017-02-11T06:08:28.944Z,1026.21
2017-02-11T06:09:29.635Z,1026.24
2017-02-11T06:10:30.292Z,1026.37
2017-02-11T06:11:30.976Z,1026.22
2017-02-11T06:12:31.643Z,1026.25
2017-02-11T06:13:32.307Z,1026.25
2017-02-11T06:14:32.990Z,1026.32
2017-02-11T06:15:33.662Z,1026.31
2017-02-11T06:16:34.324Z,1026.36
2017-02-11T06:17:35.011Z,1026.35
2017-02-11T06:18:35.671Z,1026.41
2017-02-11T06:19:36.343Z,1026.45
2017-02-11T06:20:37.033Z,1026.42
2017-02-11T06:21:37.690Z,1026.47
2017-02-11T06:22:38.412Z,1026.43
2017-02-11T06:23:39.079Z,1026.52
2017-02-11T06:24:39.772Z,1026.53
2017-02-11T06:25:40.435Z,1026.45
2017-02-11T06:26:41.114Z,1026.46
2017-02-11T06:27:41.777Z,1026.48
2017-02-11T06:28:42.456Z,1026.46
2017-02-11T06:29:43.151Z,1026.47
2017-02-11T06:30:43.837Z,1026.51
2017-02-11T06:31:44.525Z,1026.49
2017-02-11T06:32:45.208Z,1026.53
2017-02-11T06:33:45.914Z,1026.53
2017-02-11T06:34:46.591Z,1026.53
2017-02-11T06:35:47.250Z,1026.53
2017-02-11T06:36:47.941Z,1026.61
2017-02-11T06:37:48.590Z,1026.58
2017-02-11T06:38:49.284Z,1026.61
2017-02-11T06:39:49.951Z,1026.58
2017-02-11T06:40:50.645Z,1026.59
2017-02-11T06:41:51.296Z,1026.64
2017-02-11T06:42:51.953Z,1026.62
2017-02-11T06:43:52.670Z,1026.61
2017-02-11T06:44:53.308Z,1026.63
2017-02-11T06:45:53.979Z,1026.61
2017-02-11T06:46:54.644Z,1026.66
2017-02-11T06:47:55.333Z,1026.62
2017-02-11T16:22:57.167Z,1027.06
2017-02-11T16:23:57.815Z,1027.05
2017-02-11T16:24:58.631Z,1027.06
2017-02-11T16:25:59.400Z,1027.02
2017-02-11T16:27:00.101Z,1027.03
2017-02-11T16:28:00.866Z,1027.02
2017-02-11T16:29:01.579Z,1026.93
2017-02-11T16:30:02.302Z,1026.97
2017-02-11T16:31:03.055Z,1026.97
2017-02-11T16:32:03.780Z,1026.94
2017-02-11T16:33:04.508Z,1026.96
2017-02-11T16:34:05.182Z,1027.01
2017-02-11T16:35:05.870Z,1027
2017-02-11T16:36:06.597Z,1026.95
2017-02-11T16:37:07.355Z,1026.95
2017-02-11T16:38:08.147Z,1026.91
2017-02-11T16:39:08.885Z,1027.01
2017-02-11T16:40:09.633Z,1026.99
2017-02-11T16:41:10.328Z,1027.01
2017-02-11T16:42:11.003Z,1027.06
2017-02-11T16:43:11.693Z,1027.05
2017-02-11T16:44:12.361Z,1027.13
2017-02-11T16:45:13.039Z,1027.21
2017-02-11T16:46:13.775Z,1027.23
2017-02-11T16:47:14.523Z,1027.23
2017-02-11T16:48:15.199Z,1027.23
2017-02-11T16:49:15.973Z,1027.28
2017-02-11T16:50:16.690Z,1027.34
2017-02-11T16:51:17.460Z,1027.38
2017-02-11T16:52:18.167Z,1027.38
2017-02-11T16:53:18.898Z,1027.34
2017-02-11T16:54:19.734Z,1027.4
2017-02-11T16:55:20.424Z,1027.38
2017-02-11T16:56:21.162Z,1027.35
2017-02-11T16:57:21.878Z,1027.44
2017-02-11T16:58:22.539Z,1027.41
2017-02-11T16:59:23.246Z,1027.34
2017-02-11T17:00:24.006Z,1027.37
2017-02-11T17:01:24.862Z,1027.44
2017-02-11T17:02:25.691Z,1027.49
2017-02-11T17:03:26.367Z,1027.35
2017-02-11T17:04:27.049Z,1027.4
2017-02-11T17:05:27.794Z,1027.35
2017-02-11T17:06:28.556Z,1027.38
2017-02-11T17:07:29.301Z,1027.4
2017-02-11T17:08:30.018Z,1027.45
2017-02-11T17:09:30.695Z,1027.46
2017-02-11T17:10:31.374Z,1027.45
2017-02-11T17:11:32.075Z,1027.45
2017-02-11T17:12:32.815Z,1027.5
2017-02-11T17:13:33.586Z,1027.44
2017-02-11T17:14:34.312Z,1027.5
2017-02-11T17:15:35.035Z,1027.47
2017-02-11T17:16:35.822Z,1027.49
2017-02-11T17:17:36.483Z,1027.56
2017-02-11T17:18:37.191Z,1027.61
2017-02-11T17:19:37.905Z,1027.57
2017-02-11T17:20:38.556Z,1027.57
2017-02-11T17:21:39.222Z,1027.5
2017-02-11T17:22:39.971Z,1027.55
2017-02-11T17:23:40.686Z,1027.58
2017-02-11T17:24:41.393Z,1027.58
2017-02-11T17:25:42.113Z,1027.56
2017-02-11T17:26:42.861Z,1027.57
2017-02-11T17:27:43.593Z,1027.59
2017-02-11T17:28:44.302Z,1027.58
2017-02-11T17:29:45.009Z,1027.6
2017-02-11T17:30:45.759Z,1027.63
2017-02-11T17:31:46.445Z,1027.69
2017-02-11T17:32:47.173Z,1027.66
2017-02-11T17:33:47.901Z,1027.7
2017-02-11T17:34:48.610Z,1027.66
2017-02-11T17:35:49.269Z,1027.67
2017-02-11T17:36:49.969Z,1027.67
2017-02-11T17:37:50.852Z,1027.69
2017-02-11T17:38:51.531Z,1027.7
2017-02-11T17:39:52.265Z,1027.81
2017-02-11T17:40:52.951Z,1027.75
2017-02-11T17:41:53.674Z,1027.81
2017-02-11T17:42:54.407Z,1027.68
2017-02-11T17:43:55.104Z,1027.83
2017-02-11T17:44:55.790Z,1027.77
2017-02-11T17:45:56.476Z,1027.75
2017-02-11T17:46:57.207Z,1027.81
2017-02-11T17:47:57.936Z,1027.75
2017-02-11T17:48:58.695Z,1027.73
2017-02-11T17:49:59.389Z,1027.74
2017-02-11T17:51:00.143Z,1027.71
2017-02-11T17:52:00.897Z,1027.73
2017-02-11T17:53:01.662Z,1027.7
2017-02-11T17:54:02.340Z,1027.69
2017-02-11T17:55:03.055Z,1027.7
2017-02-11T17:56:03.829Z,1027.7
2017-02-11T17:57:04.560Z,1027.72
2017-02-11T17:58:05.593Z,1027.8
2017-02-11T17:59:06.383Z,1027.71
2017-02-11T18:00:07.095Z,1027.67
2017-02-11T18:01:08.023Z,1027.69
2017-02-11T18:02:08.998Z,1027.7
2017-02-11T18:03:10.066Z,1027.73
2017-02-11T18:04:10.790Z,1027.75
2017-02-11T18:05:11.483Z,1027.74
2017-02-11T18:06:12.173Z,1027.76
2017-02-11T18:07:12.848Z,1027.77
2017-02-11T18:08:13.594Z,1027.82
2017-02-11T18:09:14.327Z,1027.72
2017-02-11T18:10:15.094Z,1027.79
2017-02-11T18:11:15.963Z,1027.75
2017-02-11T18:12:16.791Z,1027.78
2017-02-11T18:13:17.693Z,1027.79
2017-02-11T18:14:18.441Z,1027.73
2017-02-11T18:15:19.188Z,1027.81
2017-02-11T18:16:20.043Z,1027.77
2017-02-11T18:17:20.723Z,1027.78
2017-02-11T18:18:21.511Z,1027.76
2017-02-11T18:19:22.488Z,1027.77
2017-02-11T18:20:23.342Z,1027.83
2017-02-11T18:21:24.360Z,1027.74
2017-02-11T18:22:25.330Z,1027.79
2017-02-11T18:23:26.113Z,1027.76
2017-02-11T18:24:26.834Z,1027.77
2017-02-11T18:25:27.595Z,1027.74
2017-02-11T18:26:28.354Z,1027.74
2017-02-11T18:27:29.062Z,1027.77
2017-02-11T18:28:29.778Z,1027.78
2017-02-11T18:29:30.503Z,1027.77
2017-02-11T18:30:31.148Z,1027.75
2017-02-11T18:31:31.852Z,1027.77
2017-02-11T18:32:32.583Z,1027.81
2017-02-11T18:33:33.278Z,1027.81
2017-02-11T18:34:33.995Z,1027.77
2017-02-11T18:35:34.742Z,1027.81
2017-02-11T18:36:35.513Z,1027.83
2017-02-11T18:37:36.566Z,1027.79
2017-02-11T18:38:37.349Z,1027.86
2017-02-11T18:39:38.028Z,1027.84
2017-02-11T18:40:38.875Z,1027.82
2017-02-11T18:41:39.677Z,1027.95
2017-02-11T18:42:40.508Z,1027.82
2017-02-11T18:43:41.224Z,1027.77
2017-02-11T18:44:42.154Z,1027.75
2017-02-11T18:45:42.849Z,1027.82
2017-02-11T18:46:43.577Z,1027.82
2017-02-11T18:47:44.328Z,1027.91
2017-02-11T18:48:45.067Z,1027.77
2017-02-11T18:49:45.789Z,1027.84
2017-02-11T18:50:46.649Z,1027.82
2017-02-11T18:51:47.379Z,1027.74
2017-02-11T18:52:48.197Z,1027.8
2017-02-11T18:53:48.980Z,1027.81
2017-02-11T18:54:49.828Z,1027.81
2017-02-11T18:55:50.768Z,1027.78
2017-02-11T18:56:51.723Z,1027.79
2017-02-11T18:57:52.641Z,1027.76
2017-02-11T18:58:53.599Z,1027.75
2017-02-11T18:59:54.380Z,1027.82
2017-02-11T19:00:55.036Z,1027.8
2017-02-11T19:01:55.911Z,1027.82
2017-02-11T19:02:56.943Z,1027.87
2017-02-11T19:03:57.799Z,1027.86
2017-02-11T19:04:58.468Z,1027.78
2017-02-11T19:05:59.328Z,1027.79
2017-02-11T19:07:00.103Z,1027.76
2017-02-11T19:08:00.863Z,1027.84
2017-02-11T19:09:01.565Z,1027.87
2017-02-11T19:10:02.351Z,1027.85
2017-02-11T19:11:03.104Z,1027.89
2017-02-11T19:12:03.867Z,1027.89
2017-02-11T19:13:04.632Z,1027.87
2017-02-11T19:14:05.335Z,1027.88
2017-02-11T19:15:06.059Z,1027.84
2017-02-11T19:16:06.954Z,1027.8
2017-02-11T19:17:07.690Z,1027.81
2017-02-11T19:18:08.505Z,1027.86
2017-02-11T19:19:09.293Z,1027.8
2017-02-11T19:20:10.175Z,1027.86
2017-02-11T19:21:11.803Z,1027.86
2017-02-11T19:22:12.997Z,1027.85
2017-02-11T19:23:13.911Z,1027.86
2017-02-11T19:24:14.729Z,1027.94
2017-02-11T19:25:16.249Z,1027.94
2017-02-11T19:26:17.105Z,1027.88
2017-02-11T19:27:17.888Z,1027.86
2017-02-11T19:28:18.575Z,1027.88
2017-02-11T19:29:19.355Z,1027.87
2017-02-11T19:30:20.081Z,1027.91
2017-02-11T19:31:20.821Z,1027.92
2017-02-11T19:32:21.548Z,1027.85
2017-02-11T19:33:22.280Z,1028.02
2017-02-11T19:34:23.001Z,1027.83
2017-02-11T19:35:23.838Z,1027.82
2017-02-11T19:36:24.483Z,1027.88
2017-02-11T19:37:25.220Z,1027.87
2017-02-11T19:38:25.994Z,1027.92
2017-02-11T19:39:26.815Z,1027.88
2017-02-11T19:40:27.483Z,1027.86
2017-02-11T19:41:28.392Z,1027.92
2017-02-11T19:42:29.211Z,1027.92
2017-02-11T19:43:29.923Z,1027.92
2017-02-11T19:44:30.810Z,1027.93
2017-02-11T19:45:31.675Z,1027.9
2017-02-11T19:46:32.489Z,1027.93
2017-02-11T19:47:34.000Z,1027.9
2017-02-11T19:48:34.697Z,1027.94
2017-02-11T19:49:35.423Z,1027.92
2017-02-11T19:50:36.258Z,1027.92
2017-02-11T19:51:37.030Z,1027.98
2017-02-11T19:52:37.697Z,1027.94
2017-02-11T19:53:38.478Z,1028
2017-02-11T19:54:39.222Z,1028
2017-02-11T19:55:39.946Z,1027.99
2017-02-11T19:56:40.647Z,1027.99
2017-02-11T19:57:41.432Z,1027.96
2017-02-11T19:58:42.134Z,1027.99
2017-02-11T19:59:42.894Z,1027.95
2017-02-11T20:00:43.613Z,1027.95
2017-02-11T20:01:44.327Z,1027.94
2017-02-11T20:02:44.998Z,1027.96
2017-02-11T20:03:45.667Z,1027.96
2017-02-11T20:04:46.345Z,1027.92
2017-02-11T20:05:47.015Z,1028
2017-02-11T20:06:47.717Z,1028.03
2017-02-11T20:07:48.457Z,1028.02
2017-02-11T20:08:49.154Z,1028.01
2017-02-11T20:09:49.862Z,1028.03
2017-02-11T20:10:50.541Z,1028.04
2017-02-11T20:11:51.262Z,1028.02
2017-02-11T20:12:51.894Z,1028
2017-02-11T20:13:52.564Z,1028.02
2017-02-11T20:14:53.279Z,1027.98
2017-02-11T20:15:54.010Z,1027.97
2017-02-11T20:16:54.742Z,1028.04
2017-02-11T20:17:55.525Z,1028.02
2017-02-11T20:18:56.238Z,1028.06
2017-02-11T20:19:57.016Z,1028.06
2017-02-11T20:20:57.686Z,1028.09
2017-02-11T20:21:58.355Z,1028.11
2017-02-11T20:22:59.033Z,1028.07
2017-02-11T20:23:59.727Z,1028.07
2017-02-11T20:25:00.435Z,1028.09
2017-02-11T20:26:01.132Z,1028.23
2017-02-11T20:27:01.838Z,1028.19
2017-02-11T20:28:02.482Z,1028.1
2017-02-11T20:29:03.317Z,1028.24
2017-02-11T20:30:04.148Z,1028.08
2017-02-11T20:31:04.895Z,1028.12
2017-02-11T20:32:05.627Z,1028.09
2017-02-11T20:33:06.305Z,1028.13
2017-02-11T20:34:07.022Z,1028.1
2017-02-11T20:35:07.684Z,1028.08
2017-02-11T20:36:08.382Z,1028.07
2017-02-11T20:37:09.160Z,1028.06
2017-02-11T20:38:09.874Z,1027.98
2017-02-11T20:39:10.560Z,1028
2017-02-11T20:40:11.256Z,1028.05
2017-02-11T20:41:11.926Z,1028.03
2017-02-11T20:42:12.595Z,1028.06
2017-02-11T20:43:13.285Z,1028.15
2017-02-11T20:44:14.111Z,1028.13
2017-02-11T20:45:14.927Z,1028.11
2017-02-11T20:46:15.648Z,1028.16
2017-02-11T20:47:16.329Z,1028.14
2017-02-11T20:48:16.994Z,1028.18
2017-02-11T20:49:17.712Z,1028.13
2017-02-11T20:50:18.404Z,1028.25
2017-02-11T20:51:19.109Z,1028.18
2017-02-11T20:52:19.775Z,1028.26
2017-02-11T20:53:20.456Z,1028.23
2017-02-11T20:54:21.136Z,1028.23
2017-02-11T20:55:21.809Z,1028.25
2017-02-11T20:56:22.511Z,1028.25
2017-02-11T20:57:23.202Z,1028.3
2017-02-11T20:58:24.020Z,1028.35
2017-02-11T20:59:24.689Z,1028.29
2017-02-11T21:00:25.691Z,1028.32
2017-02-11T21:01:26.549Z,1028.36
2017-02-11T21:02:27.473Z,1028.34
2017-02-11T21:03:28.295Z,1028.38
2017-02-11T21:04:29.018Z,1028.39
2017-02-11T21:05:29.865Z,1028.36
2017-02-11T21:06:30.594Z,1028.36
2017-02-11T21:07:31.384Z,1028.36
2017-02-11T21:08:32.107Z,1028.4
2017-02-11T21:09:32.915Z,1028.44
2017-02-11T21:10:33.873Z,1028.4
2017-02-11T21:11:34.708Z,1028.41
2017-02-11T21:12:35.472Z,1028.51
2017-02-11T21:13:36.173Z,1028.57
2017-02-11T21:14:36.902Z,1028.45
2017-02-11T21:15:37.568Z,1028.51
2017-02-11T21:16:38.239Z,1028.53
2017-02-11T21:17:38.951Z,1028.47
2017-02-11T21:18:39.625Z,1028.55
2017-02-11T21:19:40.302Z,1028.48
2017-02-11T21:20:41.002Z,1028.54
2017-02-11T21:21:41.712Z,1028.51
2017-02-11T21:22:42.428Z,1028.56
2017-02-11T21:23:43.099Z,1028.53
2017-02-11T21:24:43.756Z,1028.61
2017-02-11T21:25:44.498Z,1028.52
2017-02-11T21:26:45.201Z,1028.54
2017-02-11T21:27:45.904Z,1028.6
2017-02-11T21:28:46.589Z,1028.59
2017-02-11T21:29:47.256Z,1028.54
2017-02-11T21:30:47.971Z,1028.57
2017-02-11T21:31:48.697Z,1028.63
2017-02-11T21:32:49.395Z,1028.62
2017-02-11T21:33:50.096Z,1028.63
2017-02-11T21:34:50.777Z,1028.63
2017-02-11T21:35:51.474Z,1028.74
2017-02-11T21:36:52.155Z,1028.67
2017-02-11T21:37:52.833Z,1028.67
2017-02-11T21:38:53.533Z,1028.64
2017-02-11T21:39:54.218Z,1028.7
2017-02-11T21:40:54.911Z,1028.63
2017-02-11T21:41:55.610Z,1028.65
2017-02-11T21:42:56.333Z,1028.62
2017-02-11T21:43:57.029Z,1028.58
2017-02-11T21:44:57.745Z,1028.62
2017-02-11T21:45:58.461Z,1028.63
2017-02-11T21:46:59.136Z,1028.61
2017-02-11T21:47:59.867Z,1028.69
2017-02-11T21:49:00.568Z,1028.66
2017-02-11T21:50:01.369Z,1028.67
2017-02-11T21:51:02.118Z,1028.71